Terminal Aerodrome Forecast
Issued by NWS Flagstaff, AZ

Home | Current Version | Previous Version | Text Only | Print | Product List | Glossary On
Versions: 1 2 3 4 5 6 7 8 9 10 11 12 13 14 15 16 17 18 19 20 21 22 23 24
000
FTUS45 KFGZ 211426 AAA
TAFFLG
TAF AMD
KFLG 211426Z 2114/2212 32014G24KT P6SM SCT015 SCT035
     FM212200 33012KT P6SM FEW035
     FM220100 VRB03KT P6SM FEW250=

USA.gov is the U.S. government's official web portal to all federal, state and local government web resources and services.